Time;durP1;ratioP1;P1;durP2;ratioP2;P2;SDS_P1;SDS_P2;PMS_P1;PMS_P2;Temp;Humidity;BMP_temperature;BMP_pressure;BME280_temperature;BME280_humidity;BME280_pressure;Samples;Min_cycle;Max_cycle;Signal;HPM_P1;HPM_P2
2023/12/19 00:00:43;;;;;;;41.83;20.00;;;8.30;99.90;;;;;;7401707;19;20279;-80
2023/12/19 00:03:11;;;;;;;41.75;17.33;;;8.30;99.90;;;;;;7379872;19;20122;-79
2023/12/19 00:05:44;;;;;;;37.30;17.15;;;8.30;99.90;;;;;;7381270;19;20374;-79
2023/12/19 00:08:13;;;;;;;37.60;17.15;;;8.20;99.90;;;;;;7379642;19;20002;-79
2023/12/19 00:10:42;;;;;;;39.33;19.65;;;8.30;99.90;;;;;;7379924;19;20013;-79
2023/12/19 00:13:13;;;;;;;55.10;21.02;;;8.30;99.90;;;;;;7402145;19;20102;-78
2023/12/19 00:15:42;;;;;;;40.05;20.25;;;8.30;99.90;;;;;;7381218;19;20002;-78
2023/12/19 00:18:10;;;;;;;48.78;20.70;;;8.30;99.90;;;;;;7382559;19;20003;-79
2023/12/19 00:20:39;;;;;;;53.85;20.85;;;8.30;99.90;;;;;;7385459;19;19999;-79
2023/12/19 00:23:11;;;;;;;46.60;21.30;;;8.30;99.90;;;;;;7384429;19;20034;-78
2023/12/19 00:25:39;;;;;;;;;;;8.30;99.90;;;;;;7382732;19;20014;-79
2023/12/19 00:28:08;;;;;;;48.15;18.20;;;8.30;99.90;;;;;;7404844;19;19939;-78
2023/12/19 00:30:37;;;;;;;46.45;18.23;;;8.30;99.90;;;;;;7381341;19;20006;-78
2023/12/19 00:33:07;;;;;;;49.55;21.73;;;8.30;99.90;;;;;;7393797;19;20035;-78
2023/12/19 00:35:35;;;;;;;53.08;19.75;;;8.30;99.90;;;;;;7401893;19;20006;-78
2023/12/19 00:38:06;;;;;;;49.22;21.50;;;8.30;99.90;;;;;;7402773;19;20010;-79
2023/12/19 00:40:37;;;;;;;48.88;21.40;;;8.30;99.90;;;;;;7402330;19;20022;-78
2023/12/19 00:43:06;;;;;;;47.45;21.92;;;8.30;99.90;;;;;;7423400;19;20007;-78
2023/12/19 00:45:35;;;;;;;42.05;18.20;;;8.30;99.90;;;;;;7394768;19;20010;-78
2023/12/19 00:48:05;;;;;;;40.65;20.25;;;8.30;99.90;;;;;;7380186;19;20015;-78
2023/12/19 00:50:34;;;;;;;54.95;18.95;;;8.30;99.90;;;;;;7380159;19;20010;-79
2023/12/19 00:53:03;;;;;;;47.22;20.00;;;8.30;99.90;;;;;;7380030;19;20024;-79
2023/12/19 00:55:32;;;;;;;41.08;18.75;;;8.30;99.90;;;;;;7379764;19;20350;-78
2023/12/19 00:58:03;;;;;;;41.30;18.20;;;8.30;99.90;;;;;;7404349;19;20020;-79
2023/12/19 01:00:32;;;;;;;38.28;17.98;;;8.30;99.90;;;;;;7387036;19;20476;-79
2023/12/19 01:03:00;;;;;;;35.13;17.38;;;8.30;99.90;;;;;;7386126;19;20345;-79
2023/12/19 01:05:29;;;;;;;33.78;16.50;;;8.30;99.90;;;;;;7386433;19;20392;-79
2023/12/19 01:07:58;;;;;;;37.90;15.82;;;8.40;99.90;;;;;;7385412;19;20007;-79
2023/12/19 01:10:27;;;;;;;43.00;17.75;;;8.40;99.90;;;;;;7386506;19;20346;-78
2023/12/19 01:12:55;;;;;;;43.30;18.48;;;8.40;99.90;;;;;;7404657;19;20030;-77
2023/12/19 01:15:27;;;;;;;58.92;20.83;;;8.40;99.90;;;;;;7385897;19;20812;-77
2023/12/19 01:17:55;;;;;;;;;;;8.40;99.90;;;;;;7385862;19;20002;-78
2023/12/19 01:20:24;;;;;;;42.70;15.73;;;8.40;99.90;;;;;;7386073;19;19923;-78
2023/12/19 01:22:52;;;;;;;48.03;16.55;;;8.40;99.90;;;;;;7383869;19;20015;-79
2023/12/19 01:25:21;;;;;;;33.70;15.68;;;8.40;99.90;;;;;;7385410;19;20007;-78
2023/12/19 01:27:50;;;;;;;37.33;16.45;;;8.30;99.90;;;;;;7405812;19;20107;-79
2023/12/19 01:30:19;;;;;;;38.55;16.75;;;8.30;99.90;;;;;;7385058;19;20058;-79
2023/12/19 01:32:51;;;;;;;35.40;15.73;;;8.40;99.90;;;;;;7384368;19;20002;-79
2023/12/19 01:35:21;;;;;;;32.72;15.43;;;8.20;99.90;;;;;;7384827;19;20006;-78
2023/12/19 01:37:49;;;;;;;39.72;17.20;;;8.30;99.90;;;;;;7384124;19;20096;-78
2023/12/19 01:40:18;;;;;;;37.53;16.05;;;8.30;99.90;;;;;;7384145;19;20018;-78
2023/12/19 01:42:47;;;;;;;37.00;14.48;;;8.30;99.90;;;;;;7404152;19;20007;-78
2023/12/19 01:45:16;;;;;;;34.17;15.60;;;8.10;99.90;;;;;;7383917;19;20009;-78
2023/12/19 01:47:46;;;;;;;38.65;16.38;;;8.10;99.90;;;;;;7387478;19;19998;-78
2023/12/19 01:50:20;;;;;;;41.03;16.58;;;8.20;99.90;;;;;;7385617;19;20014;-78
2023/12/19 01:52:52;;;;;;;34.97;16.98;;;8.20;99.90;;;;;;7382748;19;20020;-78
2023/12/19 01:55:22;;;;;;;39.63;15.95;;;8.20;99.90;;;;;;7382607;19;20007;-78
2023/12/19 01:57:52;;;;;;;48.03;17.20;;;8.30;99.90;;;;;;7406745;19;20302;-78
2023/12/19 02:00:21;;;;;;;36.72;15.88;;;8.30;99.90;;;;;;7384205;19;20445;-78
2023/12/19 02:02:50;;;;;;;34.08;15.45;;;8.30;99.90;;;;;;7384661;19;20035;-78
2023/12/19 02:05:22;;;;;;;36.45;15.82;;;8.20;99.90;;;;;;7383789;19;20034;-79
2023/12/19 02:07:51;;;;;;;37.13;15.57;;;8.30;99.90;;;;;;7383042;19;20014;-79
2023/12/19 02:10:19;;;;;;;36.72;16.00;;;8.30;99.90;;;;;;7382182;19;20050;-78
2023/12/19 02:12:51;;;;;;;39.42;16.65;;;8.30;99.90;;;;;;7404171;19;20248;-78
2023/12/19 02:15:19;;;;;;;;;;;8.30;99.90;;;;;;7384393;19;20046;-79
2023/12/19 02:17:48;;;;;;;37.38;14.00;;;8.30;99.90;;;;;;7383240;19;19911;-78
2023/12/19 02:20:19;;;;;;;40.60;16.77;;;8.30;99.90;;;;;;7383682;19;20007;-78
2023/12/19 02:22:53;;;;;;;40.10;15.15;;;8.30;99.90;;;;;;7384324;19;20043;-79
2023/12/19 02:25:22;;;;;;;33.60;14.95;;;8.20;99.90;;;;;;7384228;19;20014;-79
2023/12/19 02:27:51;;;;;;;38.75;16.83;;;8.20;99.90;;;;;;7408271;19;20011;-79
2023/12/19 02:30:20;;;;;;;47.10;18.00;;;8.30;99.90;;;;;;7384425;19;20259;-79
2023/12/19 02:32:49;;;;;;;32.78;15.13;;;8.30;99.90;;;;;;7383063;19;20006;-80
2023/12/19 02:35:18;;;;;;;43.95;16.65;;;8.40;99.90;;;;;;7382152;19;20007;-79
2023/12/19 02:37:47;;;;;;;44.10;16.95;;;8.30;99.90;;;;;;7382584;19;20019;-79
2023/12/19 02:40:18;;;;;;;41.08;17.10;;;8.30;99.90;;;;;;7383458;19;20410;-79
2023/12/19 02:42:47;;;;;;;38.95;17.20;;;8.30;99.90;;;;;;7404893;19;20429;-79
2023/12/19 02:45:16;;;;;;;43.15;17.85;;;8.40;99.90;;;;;;7383772;19;20011;-78
2023/12/19 02:47:45;;;;;;;36.10;16.70;;;8.40;99.90;;;;;;7383199;19;20283;-78
2023/12/19 02:50:14;;;;;;;36.75;18.35;;;8.30;99.90;;;;;;7383561;19;20003;-79
2023/12/19 02:52:43;;;;;;;45.50;18.60;;;8.30;99.90;;;;;;7384035;19;20561;-79
2023/12/19 02:55:14;;;;;;;44.83;19.58;;;8.40;99.90;;;;;;7403721;19;20026;-79
2023/12/19 02:57:46;;;;;;;29.15;12.23;;;8.30;99.90;;;;;;7383385;19;20043;-80
2023/12/19 03:00:15;;;;;;;32.58;15.27;;;8.30;99.90;;;;;;7386643;19;20301;-78
2023/12/19 03:02:46;;;;;;;45.25;17.08;;;8.40;99.90;;;;;;7392590;19;20024;-78
2023/12/19 03:05:14;;;;;;;34.95;17.15;;;8.40;99.90;;;;;;7394108;19;20024;-78
2023/12/19 03:07:43;;;;;;;42.70;18.60;;;8.50;99.90;;;;;;7390717;19;20014;-79
2023/12/19 03:10:12;;;;;;;31.90;15.13;;;8.50;99.90;;;;;;7413717;19;20027;-78
2023/12/19 03:12:41;;;;;;;33.63;16.25;;;8.50;99.90;;;;;;7381180;19;20010;-78
2023/12/19 03:15:13;;;;;;;41.33;16.98;;;8.40;99.90;;;;;;7381140;19;20225;-78
2023/12/19 03:17:41;;;;;;;35.58;15.13;;;8.40;99.90;;;;;;7381524;19;20374;-78
2023/12/19 03:20:11;;;;;;;40.30;16.35;;;8.40;99.90;;;;;;7383153;19;20006;-78
2023/12/19 03:22:40;;;;;;;35.85;16.23;;;8.40;99.90;;;;;;7381654;19;20395;-77
2023/12/19 03:25:10;;;;;;;39.58;17.75;;;8.40;99.90;;;;;;7405481;19;20010;-79
2023/12/19 03:27:38;;;;;;;36.85;17.52;;;8.50;99.90;;;;;;7382629;19;20002;-78
2023/12/19 03:30:11;;;;;;;40.78;18.35;;;8.50;99.90;;;;;;7381015;19;20601;-78
2023/12/19 03:32:42;;;;;;;34.75;16.70;;;8.50;99.90;;;;;;7381550;19;20002;-78
2023/12/19 03:35:10;;;;;;;;;;;8.60;99.90;;;;;;7381748;19;20015;-78
2023/12/19 03:37:41;;;;;;;36.90;16.63;;;8.60;99.90;;;;;;7380857;19;19931;-79
2023/12/19 03:40:10;;;;;;;45.42;17.88;;;8.60;99.90;;;;;;7405395;19;20013;-78
2023/12/19 03:42:39;;;;;;;46.88;18.63;;;8.70;99.90;;;;;;7381667;19;20007;-78
2023/12/19 03:45:09;;;;;;;41.13;18.60;;;8.70;99.90;;;;;;7380829;19;20002;-78
2023/12/19 03:47:39;;;;;;;36.78;16.98;;;8.70;99.90;;;;;;7380332;19;20006;-79
2023/12/19 03:50:11;;;;;;;37.83;17.60;;;8.70;99.90;;;;;;7384385;19;20262;-78
2023/12/19 03:52:41;;;;;;;42.53;18.13;;;8.70;99.90;;;;;;7384716;19;20038;-79
2023/12/19 03:55:11;;;;;;;37.70;16.08;;;8.70;99.90;;;;;;7405204;19;20011;-79
2023/12/19 03:57:39;;;;;;;41.28;16.10;;;8.70;99.90;;;;;;7381854;19;20003;-79
2023/12/19 04:00:10;;;;;;;39.72;17.10;;;8.70;99.90;;;;;;7380833;19;20279;-79
2023/12/19 04:02:36;;;;;;;31.08;15.60;;;8.70;99.90;;;;;;7380995;19;20007;-79
2023/12/19 04:05:06;;;;;;;56.05;19.45;;;8.70;99.90;;;;;;7383334;19;20010;-79
2023/12/19 04:07:37;;;;;;;43.22;18.90;;;8.70;99.90;;;;;;7382453;19;20044;-78
2023/12/19 04:10:06;;;;;;;;;;;8.70;99.90;;;;;;7402001;19;20011;-79
2023/12/19 04:12:35;;;;;;;33.38;14.57;;;8.80;99.90;;;;;;7378374;19;19923;-79
2023/12/19 04:15:03;;;;;;;39.22;17.30;;;8.80;99.90;;;;;;7380380;19;20011;-79
2023/12/19 04:17:32;;;;;;;42.40;16.13;;;8.80;99.90;;;;;;7381254;19;20031;-79
2023/12/19 04:20:01;;;;;;;40.10;18.02;;;8.80;99.90;;;;;;7379501;19;20006;-79
2023/12/19 04:22:30;;;;;;;42.30;17.35;;;8.60;99.90;;;;;;7380588;19;20011;-79
2023/12/19 04:25:03;;;;;;;39.53;15.75;;;8.70;99.90;;;;;;7400278;19;20007;-78
2023/12/19 04:27:32;;;;;;;29.77;14.95;;;8.60;99.90;;;;;;7380554;19;20350;-79
2023/12/19 04:30:00;;;;;;;43.17;17.33;;;8.70;99.90;;;;;;7380634;19;20367;-78
2023/12/19 04:32:29;;;;;;;41.53;17.42;;;8.60;99.90;;;;;;7381558;19;20477;-79
2023/12/19 04:34:58;;;;;;;40.45;16.50;;;8.70;99.90;;;;;;7386143;19;20027;-79
2023/12/19 04:37:26;;;;;;;46.97;18.80;;;8.70;99.90;;;;;;7391215;19;20013;-78
2023/12/19 04:39:57;;;;;;;41.85;16.30;;;8.70;99.90;;;;;;7408700;19;20026;-77
2023/12/19 04:42:28;;;;;;;37.40;15.18;;;8.70;99.90;;;;;;7385839;19;20007;-78
2023/12/19 04:44:58;;;;;;;;;;;8.70;99.90;;;;;;7389907;19;20042;-78
2023/12/19 04:47:27;;;;;;;30.95;13.20;;;8.70;99.90;;;;;;7387376;19;19907;-78
2023/12/19 04:49:55;;;;;;;28.58;14.25;;;8.70;99.90;;;;;;7385896;19;20365;-78
2023/12/19 04:52:27;;;;;;;33.42;15.00;;;8.70;99.90;;;;;;7385086;19;20015;-77
2023/12/19 04:54:56;;;;;;;41.42;16.52;;;8.70;99.90;;;;;;7405266;19;20665;-78
2023/12/19 04:57:25;;;;;;;36.38;16.17;;;8.80;99.90;;;;;;7385876;19;20233;-78
2023/12/19 04:59:57;;;;;;;35.92;16.40;;;8.80;99.90;;;;;;7385126;19;20381;-78
2023/12/19 05:02:25;;;;;;;37.40;14.57;;;8.80;99.90;;;;;;7386196;19;20062;-78
2023/12/19 05:04:54;;;;;;;37.25;14.85;;;8.80;99.90;;;;;;7388526;19;20066;-78
2023/12/19 05:07:24;;;;;;;33.08;14.48;;;8.80;99.90;;;;;;7387013;19;20047;-78
2023/12/19 05:09:53;;;;;;;33.10;13.00;;;8.90;99.90;;;;;;7408059;19;20024;-78
2023/12/19 05:12:21;;;;;;;27.58;13.63;;;8.80;99.90;;;;;;7382331;19;20017;-77
2023/12/19 05:14:50;;;;;;;30.88;12.85;;;8.60;99.90;;;;;;7383894;19;20003;-78
2023/12/19 05:17:22;;;;;;;37.92;14.13;;;8.70;99.90;;;;;;7386083;19;20007;-80
2023/12/19 05:19:50;;;;;;;;;;;8.70;99.90;;;;;;7386682;19;20090;-78
2023/12/19 05:22:19;;;;;;;26.50;12.95;;;8.60;99.90;;;;;;7383263;19;19911;-78
2023/12/19 05:24:47;;;;;;;27.85;12.70;;;8.70;99.90;;;;;;7411655;19;20031;-77
2023/12/19 05:27:16;;;;;;;25.75;12.80;;;8.70;99.90;;;;;;7393781;19;20007;-77
2023/12/19 05:29:46;;;;;;;34.90;14.02;;;8.70;99.90;;;;;;7392603;19;20018;-78
2023/12/19 05:32:15;;;;;;;29.63;14.88;;;8.80;99.90;;;;;;7393408;19;20003;-78
2023/12/19 05:34:46;;;;;;;36.17;13.52;;;8.80;99.90;;;;;;7394535;19;20011;-78
2023/12/19 05:37:15;;;;;;;28.55;12.73;;;8.80;99.90;;;;;;7406567;19;20062;-77
2023/12/19 05:39:44;;;;;;;31.55;12.82;;;8.80;99.90;;;;;;7384792;19;20031;-78
2023/12/19 05:42:12;;;;;;;29.83;13.05;;;8.40;99.90;;;;;;7388315;19;20396;-79
2023/12/19 05:44:41;;;;;;;26.50;13.02;;;8.20;99.90;;;;;;7386657;19;20363;-78
2023/12/19 05:47:12;;;;;;;41.33;14.07;;;8.30;99.90;;;;;;7386946;19;20010;-78
2023/12/19 05:49:41;;;;;;;30.02;13.60;;;8.40;99.90;;;;;;7385139;19;20006;-78
2023/12/19 05:52:12;;;;;;;380.33;26.73;;;8.60;99.90;;;;;;7406235;19;20014;-80
2023/12/19 05:54:43;;;;;;;138.70;17.60;;;8.70;99.90;;;;;;7384541;19;19999;-78
2023/12/19 05:57:12;;;;;;;28.88;13.70;;;8.80;99.90;;;;;;7385908;19;20068;-78
2023/12/19 05:59:41;;;;;;;26.02;13.38;;;8.70;99.90;;;;;;7386575;19;20022;-78
2023/12/19 06:02:10;;;;;;;28.45;14.68;;;8.60;99.90;;;;;;7382740;19;20006;-78
2023/12/19 06:04:38;;;;;;;27.45;13.20;;;8.70;99.90;;;;;;7382106;19;20018;-77
2023/12/19 06:07:07;;;;;;;36.38;14.13;;;8.70;99.90;;;;;;7405611;19;20015;-78
2023/12/19 06:09:38;;;;;;;29.67;13.75;;;8.70;99.90;;;;;;7382935;19;20009;-77
2023/12/19 06:12:10;;;;;;;32.00;15.35;;;8.60;99.90;;;;;;7381542;19;20007;-77
2023/12/19 06:14:39;;;;;;;27.92;13.02;;;8.60;99.90;;;;;;7383346;19;20014;-79
2023/12/19 06:17:08;;;;;;;34.33;14.23;;;8.50;99.90;;;;;;7383685;19;20003;-79
2023/12/19 06:19:42;;;;;;;35.25;14.18;;;8.50;99.90;;;;;;7384112;19;20101;-78
2023/12/19 06:22:11;;;;;;;35.28;14.68;;;8.70;99.90;;;;;;7402707;19;20027;-78
2023/12/19 06:24:42;;;;;;;41.97;14.90;;;8.60;99.90;;;;;;7383586;19;20007;-78
2023/12/19 06:27:15;;;;;;;32.08;14.00;;;8.70;99.90;;;;;;7383697;19;20034;-78
2023/12/19 06:29:46;;;;;;;31.27;12.95;;;8.80;99.90;;;;;;7385742;19;20050;-78
2023/12/19 06:32:17;;;;;;;28.27;13.35;;;8.80;99.90;;;;;;7382699;19;20011;-78
2023/12/19 06:34:46;;;;;;;26.02;13.70;;;8.80;99.90;;;;;;7383132;19;20078;-78
2023/12/19 06:37:15;;;;;;;26.55;14.02;;;8.80;99.90;;;;;;7408164;19;20011;-79
2023/12/19 06:39:47;;;;;;;30.33;13.35;;;8.80;99.90;;;;;;7388104;19;20019;-79
2023/12/19 06:42:15;;;;;;;32.30;14.38;;;8.80;99.90;;;;;;7385567;19;20007;-79
2023/12/19 06:44:45;;;;;;;34.97;13.82;;;8.80;99.90;;;;;;7382800;19;20377;-79
2023/12/19 06:47:15;;;;;;;32.97;15.10;;;8.90;99.90;;;;;;7383640;19;20247;-79
2023/12/19 06:49:45;;;;;;;26.80;12.63;;;8.90;99.90;;;;;;7386053;19;20022;-80
2023/12/19 06:52:14;;;;;;;27.25;13.45;;;8.90;99.90;;;;;;7406579;19;20014;-78
2023/12/19 06:54:47;;;;;;;31.95;13.65;;;8.80;99.90;;;;;;7382964;19;20027;-80
2023/12/19 06:57:16;;;;;;;30.10;13.65;;;8.90;99.90;;;;;;7382499;19;20011;-79
2023/12/19 06:59:44;;;;;;;29.55;12.50;;;8.90;99.90;;;;;;7382296;19;20002;-79
2023/12/19 07:02:24;;;;;;;31.15;13.55;;;8.90;99.90;;;;;;7384227;19;20002;-80
2023/12/19 07:04:52;;;;;;;29.02;12.57;;;8.80;99.90;;;;;;7382359;19;20018;-81
2023/12/19 07:07:21;;;;;;;27.40;12.95;;;8.90;99.90;;;;;;7381998;19;20066;-79
2023/12/19 07:09:54;;;;;;;35.53;13.82;;;8.90;99.90;;;;;;7402838;19;20011;-79
2023/12/19 07:12:23;;;;;;;32.80;13.32;;;8.90;99.90;;;;;;7381130;19;20016;-80
2023/12/19 07:14:54;;;;;;;35.50;13.95;;;8.90;99.90;;;;;;7381333;19;20007;-80
2023/12/19 07:17:23;;;;;;;;;;;8.90;99.90;;;;;;7381832;19;19998;-79
2023/12/19 07:19:52;;;;;;;28.85;11.50;;;8.90;99.90;;;;;;7381575;19;19911;-78
2023/12/19 07:22:21;;;;;;;31.65;12.95;;;8.90;99.90;;;;;;7379563;19;20031;-79
2023/12/19 07:24:52;;;;;;;28.42;12.35;;;8.90;99.90;;;;;;7405571;19;20021;-78
2023/12/19 07:27:20;;;;;;;;;;;8.90;99.90;;;;;;7381789;19;20010;-79
2023/12/19 07:29:49;;;;;;;33.38;11.07;;;9.00;99.90;;;;;;7380539;19;20258;-78
2023/12/19 07:32:18;;;;;;;25.88;10.98;;;8.90;99.90;;;;;;7380909;19;19998;-79
2023/12/19 07:34:47;;;;;;;27.83;12.18;;;8.80;99.90;;;;;;7385088;19;20023;-79
2023/12/19 07:37:18;;;;;;;27.58;11.50;;;8.90;99.90;;;;;;7404565;19;20002;-79
2023/12/19 07:39:49;;;;;;;28.90;12.13;;;8.80;99.90;;;;;;7406646;19;20010;-79
2023/12/19 07:42:22;;;;;;;26.75;11.98;;;8.70;99.90;;;;;;7380317;19;20369;-79
2023/12/19 07:44:54;;;;;;;33.72;13.68;;;8.80;99.90;;;;;;7381926;19;20582;-79
2023/12/19 07:47:25;;;;;;;29.23;12.07;;;8.80;99.90;;;;;;7382433;19;20007;-79
2023/12/19 07:49:54;;;;;;;28.73;12.98;;;8.70;99.90;;;;;;7385559;19;20006;-79
2023/12/19 07:52:23;;;;;;;29.45;12.73;;;8.60;99.90;;;;;;7394851;19;20010;-77
2023/12/19 07:55:01;;;;;;;31.27;12.90;;;8.70;99.90;;;;;;7422421;19;20007;-78
2023/12/19 09:20:48;;;;;;;22.63;11.20;;;8.90;99.90;;;;;;7374570;19;20066;-80
2023/12/19 09:23:16;;;;;;;27.48;11.05;;;9.00;99.90;;;;;;7386888;19;20010;-78
2023/12/19 09:25:45;;;;;;;25.58;11.95;;;8.90;99.90;;;;;;7383611;19;20065;-78
2023/12/19 09:28:14;;;;;;;32.15;12.20;;;9.10;99.90;;;;;;7408184;19;20002;-78
2023/12/19 09:30:43;;;;;;;25.77;10.75;;;9.20;99.90;;;;;;7388577;19;20373;-78
2023/12/19 10:52:04;;;;;;;24.60;9.70;;;9.80;99.90;;;;;;7371062;19;20074;-80
2023/12/19 11:43:58;;;;;;;19.58;8.27;;;9.80;99.90;;;;;;7446010;19;20010;-81
2023/12/19 12:21:10;;;;;;;;;;;10.20;99.90;;;;;;7413999;19;20019;-79
2023/12/19 12:26:54;;;;;;;22.30;9.10;;;10.20;99.90;;;;;;7419131;19;20070;-81
2023/12/19 13:33:41;;;;;;;23.38;8.57;;;10.20;99.90;;;;;;7414667;19;20079;-78
2023/12/19 13:36:15;;;;;;;20.00;8.93;;;10.20;99.90;;;;;;7414952;19;20011;-79
2023/12/19 13:38:45;;;;;;;18.77;9.57;;;10.30;99.90;;;;;;7413339;19;20063;-79
2023/12/19 13:41:15;;;;;;;30.38;9.52;;;10.40;99.90;;;;;;7416521;19;20035;-77
2023/12/19 13:44:02;;;;;;;23.75;9.10;;;10.60;99.90;;;;;;7415828;19;20094;-79
2023/12/19 13:46:35;;;;;;;17.77;8.85;;;10.60;99.90;;;;;;7410182;19;20029;-78
2023/12/19 13:49:04;;;;;;;16.40;8.07;;;10.50;99.90;;;;;;7434899;19;20015;-79
2023/12/19 13:51:33;;;;;;;19.27;8.27;;;10.60;99.90;;;;;;7412614;19;20033;-77
2023/12/19 13:54:03;;;;;;;18.95;8.43;;;10.70;99.90;;;;;;7409746;19;20393;-77
2023/12/19 13:56:31;;;;;;;24.52;8.90;;;10.70;99.90;;;;;;7410544;19;20271;-78
2023/12/19 13:59:17;;;;;;;22.40;8.65;;;10.70;99.90;;;;;;7414585;19;20014;-80
2023/12/19 14:02:18;;;;;;;22.67;9.02;;;10.80;99.90;;;;;;7437270;19;20017;-83
2023/12/19 14:04:46;;;;;;;20.23;8.43;;;10.80;99.90;;;;;;7399111;19;20020;-79
2023/12/19 14:07:23;;;;;;;16.58;8.65;;;10.80;99.90;;;;;;7405362;19;19999;-80
2023/12/19 14:09:51;;;;;;;20.60;9.00;;;10.70;99.90;;;;;;7384193;19;20006;-78
2023/12/19 14:12:20;;;;;;;18.77;8.15;;;10.70;99.90;;;;;;7386551;19;20254;-80
2023/12/19 14:15:03;;;;;;;17.50;8.25;;;10.70;99.90;;;;;;7386055;19;20006;-80
2023/12/19 14:17:49;;;;;;;18.38;9.48;;;10.50;99.90;;;;;;7392925;19;20028;-80
2023/12/19 14:20:18;;;;;;;20.73;8.75;;;10.70;99.90;;;;;;7393072;19;20276;-80
2023/12/19 14:32:03;;;;;;;19.40;8.57;;;10.60;99.90;;;;;;7387426;19;20007;-78
2023/12/19 14:34:35;;;;;;;16.15;8.65;;;10.60;99.90;;;;;;7384306;19;20010;-78
2023/12/19 14:37:08;;;;;;;19.58;7.93;;;10.50;99.90;;;;;;7407303;19;20083;-80
2023/12/19 14:39:40;;;;;;;20.83;8.95;;;10.70;99.90;;;;;;7383364;19;20010;-79
2023/12/19 14:42:32;;;;;;;20.58;8.50;;;10.70;99.90;;;;;;7384422;19;20372;-83
2023/12/19 14:45:18;;;;;;;;;;;10.70;99.90;;;;;;7387750;19;20018;-80
2023/12/19 14:54:35;;;;;;;23.93;9.07;;;10.80;99.90;;;;;;7405889;19;19979;-81
2023/12/19 15:01:00;;;;;;;20.90;8.98;;;10.70;99.90;;;;;;7383850;19;20039;-81
2023/12/19 15:03:46;;;;;;;16.75;9.35;;;10.80;99.90;;;;;;7385722;19;19998;-78
2023/12/19 15:06:15;;;;;;;20.80;8.80;;;10.80;99.90;;;;;;7383486;19;20006;-78
2023/12/19 15:08:46;;;;;;;18.35;8.23;;;10.80;99.90;;;;;;7384258;19;20009;-78
2023/12/19 15:11:20;;;;;;;17.55;9.35;;;10.90;99.90;;;;;;7383289;19;20002;-80
2023/12/19 15:13:49;;;;;;;18.13;9.70;;;10.80;99.90;;;;;;7386901;19;20051;-81
2023/12/19 15:23:07;;;;;;;22.77;9.40;;;10.60;99.90;;;;;;7406832;19;19975;-84
2023/12/19 15:32:02;;;;;;;18.33;9.02;;;10.30;99.90;;;;;;7392229;19;19998;-81
2023/12/19 15:34:31;;;;;;;19.45;8.93;;;10.30;99.90;;;;;;7389445;19;20046;-78
2023/12/19 15:37:00;;;;;;;18.42;9.18;;;10.50;99.90;;;;;;7405141;19;20011;-79
2023/12/19 15:39:29;;;;;;;27.23;9.60;;;10.60;99.90;;;;;;7379964;19;20006;-78
2023/12/19 15:42:05;;;;;;;26.15;8.65;;;10.60;99.90;;;;;;7405309;19;20021;-79
2023/12/19 15:44:53;;;;;;;19.15;9.10;;;10.40;99.90;;;;;;7380738;19;20520;-81
2023/12/19 15:50:16;;;;;;;20.58;9.18;;;10.50;99.90;;;;;;7379687;19;20007;-78
2023/12/19 15:52:47;;;;;;;17.80;8.73;;;10.50;99.90;;;;;;7381076;19;20017;-79
2023/12/19 15:55:17;;;;;;;19.27;9.63;;;10.60;99.90;;;;;;7405375;19;20021;-81
2023/12/19 16:04:25;;;;;;;20.77;9.07;;;10.20;99.90;;;;;;7405388;19;20291;-79
2023/12/19 16:10:08;;;;;;;21.97;9.63;;;10.40;99.90;;;;;;7408324;19;20341;-80
2023/12/19 16:12:45;;;;;;;20.00;9.80;;;10.40;99.90;;;;;;7385340;19;20262;-80
2023/12/19 16:15:14;;;;;;;29.15;10.25;;;10.50;99.90;;;;;;7380590;19;20015;-77
2023/12/19 16:17:42;;;;;;;17.75;8.73;;;10.50;99.90;;;;;;7379138;19;20051;-78
2023/12/19 16:20:15;;;;;;;24.05;10.20;;;10.50;99.90;;;;;;7378658;19;20002;-77
2023/12/19 16:22:43;;;;;;;23.60;10.18;;;10.60;99.90;;;;;;7380556;19;20328;-78
2023/12/19 16:25:21;;;;;;;29.30;9.85;;;10.70;99.90;;;;;;7404971;19;20003;-80
2023/12/19 16:27:52;;;;;;;31.17;10.38;;;10.40;99.90;;;;;;7384519;19;20029;-80
2023/12/19 16:30:41;;;;;;;19.88;9.60;;;10.60;99.90;;;;;;7382733;19;20007;-81
2023/12/19 16:39:53;;;;;;;23.00;9.77;;;10.70;99.90;;;;;;7378560;19;20010;-78
2023/12/19 16:42:22;;;;;;;21.13;9.40;;;10.40;99.90;;;;;;7398652;19;20254;-77
2023/12/19 16:48:39;;;;;;;24.92;9.93;;;10.50;99.90;;;;;;7397982;19;20010;-83
2023/12/19 16:51:08;;;;;;;23.60;10.15;;;10.30;99.90;;;;;;7375223;19;20378;-76
2023/12/19 16:53:37;;;;;;;40.50;11.40;;;10.30;99.90;;;;;;7374265;19;20570;-77
2023/12/19 16:56:14;;;;;;;30.67;11.18;;;10.50;99.90;;;;;;7375895;19;20006;-79
2023/12/19 16:58:43;;;;;;;30.35;12.27;;;10.70;99.90;;;;;;7376563;19;20019;-78
2023/12/19 17:01:14;;;;;;;28.70;12.32;;;10.70;99.90;;;;;;7399070;19;20027;-78
2023/12/19 17:03:43;;;;;;;29.23;12.80;;;10.70;99.90;;;;;;7375749;19;20093;-77
2023/12/19 17:06:16;;;;;;;27.23;11.93;;;10.60;99.90;;;;;;7377285;19;20011;-77
2023/12/19 17:08:46;;;;;;;30.45;11.98;;;10.60;99.90;;;;;;7381106;19;19999;-77
2023/12/19 17:11:21;;;;;;;28.80;12.57;;;10.70;99.90;;;;;;7381616;19;20013;-79
2023/12/19 17:17:07;;;;;;;34.00;12.90;;;10.60;99.90;;;;;;7377558;19;20265;-80
2023/12/19 17:19:36;;;;;;;30.95;15.13;;;10.60;99.90;;;;;;7379493;19;20015;-81
2023/12/19 17:22:04;;;;;;;37.28;14.57;;;10.70;99.90;;;;;;7401894;19;20056;-80
2023/12/19 17:24:33;;;;;;;27.05;13.05;;;10.50;99.90;;;;;;7380904;19;20734;-79
2023/12/19 17:30:09;;;;;;;30.10;12.80;;;10.40;99.90;;;;;;7377169;19;20003;-80
2023/12/19 17:32:40;;;;;;;24.20;10.82;;;10.50;99.90;;;;;;7377125;19;20003;-81
2023/12/19 17:35:09;;;;;;;;;;;10.60;99.90;;;;;;7377526;19;20011;-80
2023/12/19 17:38:07;;;;;;;22.70;10.68;;;10.30;99.90;;;;;;7372953;19;19903;-80
2023/12/19 17:43:36;;;;;;;22.27;11.88;;;10.30;99.90;;;;;;7381244;19;20006;-80
2023/12/19 17:46:05;;;;;;;23.88;11.35;;;10.20;99.90;;;;;;7401391;19;20019;-77
2023/12/19 17:48:34;;;;;;;24.17;12.73;;;10.00;99.90;;;;;;7382795;19;20019;-77
2023/12/19 17:51:02;;;;;;;28.65;13.73;;;10.10;99.90;;;;;;7383489;19;20003;-78
2023/12/19 17:53:31;;;;;;;26.08;12.55;;;10.20;99.90;;;;;;7421258;19;20010;-80
2023/12/19 17:56:00;;;;;;;28.80;11.68;;;10.30;99.90;;;;;;7399362;19;20030;-76
2023/12/19 17:58:29;;;;;;;22.55;11.55;;;10.50;99.90;;;;;;7416903;19;20006;-77
2023/12/19 18:04:20;;;;;;;18.95;11.40;;;10.40;99.90;;;;;;7388296;19;20100;-78
2023/12/19 18:06:49;;;;;;;22.15;11.38;;;10.50;99.90;;;;;;7384833;19;20007;-82
2023/12/19 18:09:19;;;;;;;24.65;12.10;;;10.40;99.90;;;;;;7383335;19;20066;-79
2023/12/19 18:11:48;;;;;;;23.52;11.38;;;10.30;99.90;;;;;;7384311;19;20013;-81
2023/12/19 18:14:17;;;;;;;22.23;12.20;;;10.40;99.90;;;;;;7385455;19;20072;-77
2023/12/19 18:16:48;;;;;;;19.55;11.07;;;10.40;99.90;;;;;;7389501;19;19999;-80
2023/12/19 18:19:19;;;;;;;25.85;11.63;;;10.40;99.90;;;;;;7408060;19;20007;-79
2023/12/19 18:21:58;;;;;;;16.38;10.00;;;10.50;99.90;;;;;;7387729;19;20003;-78
2023/12/19 18:24:45;;;;;;;20.38;11.00;;;10.50;99.90;;;;;;7387417;19;20025;-80
2023/12/19 18:34:07;;;;;;;19.95;10.38;;;10.50;99.90;;;;;;7386302;19;20011;-81
2023/12/19 18:40:06;;;;;;;19.38;11.15;;;10.60;99.90;;;;;;7385758;19;20013;-80
2023/12/19 18:42:35;;;;;;;16.88;11.05;;;10.60;99.90;;;;;;7380946;19;20014;-77
2023/12/19 18:45:04;;;;;;;24.38;11.30;;;10.70;99.90;;;;;;7380273;19;20003;-77
2023/12/19 18:47:35;;;;;;;17.73;10.90;;;10.70;99.90;;;;;;7386119;19;20026;-78
2023/12/19 18:50:22;;;;;;;;;;;;;;;;;;;;;
2023/12/19 18:52:52;;;;;;;19.15;10.30;;;10.80;99.90;;;;;;7380833;19;20003;-79
2023/12/19 18:55:28;;;;;;;19.67;10.70;;;10.50;99.90;;;;;;7399879;19;20009;-78
2023/12/19 18:58:11;;;;;;;22.92;11.85;;;10.60;99.90;;;;;;7381790;19;20013;-78
2023/12/19 19:00:40;;;;;;;17.17;10.23;;;10.50;99.90;;;;;;7384266;19;20002;-77
2023/12/19 19:03:09;;;;;;;19.27;11.05;;;10.40;99.90;;;;;;7386170;19;20022;-78
2023/12/19 19:05:38;;;;;;;20.45;11.73;;;10.50;99.90;;;;;;7377973;19;20070;-77
2023/12/19 19:08:08;;;;;;;20.40;11.77;;;10.50;99.90;;;;;;7379922;19;20011;-77
2023/12/19 19:10:40;;;;;;;19.50;11.80;;;10.40;99.90;;;;;;7378899;19;20041;-77
2023/12/19 19:13:08;;;;;;;19.73;12.05;;;10.60;99.90;;;;;;7398684;19;20082;-77
2023/12/19 19:15:37;;;;;;;24.40;11.10;;;10.70;99.90;;;;;;7378965;19;20006;-77
2023/12/19 19:18:07;;;;;;;21.45;12.35;;;10.60;99.90;;;;;;7380199;19;20011;-77
2023/12/19 19:20:37;;;;;;;22.10;11.07;;;10.80;99.90;;;;;;7380540;19;19999;-77
2023/12/19 19:23:15;;;;;;;28.48;12.18;;;10.80;99.90;;;;;;7380229;19;20357;-77
2023/12/19 19:26:05;;;;;;;18.58;12.00;;;10.60;99.90;;;;;;7382509;19;20245;-82
2023/12/19 19:28:37;;;;;;;17.90;10.52;;;10.80;99.90;;;;;;7411846;19;20022;-80
2023/12/19 19:31:06;;;;;;;19.88;10.95;;;10.80;99.90;;;;;;7389471;19;20006;-78